Observation data for McLean on 01/18/2019      Previous  Date  Next       Current Mesonet Observations  Soil Data  Daily Summary Page  Observations in Plain Language
KMCS 180600Z 17011KT 05/03 A2995 RMK A01 T00520028  RH  086%=      5-min Rain = 0
KMCS 180605Z 18011G16KT 05/03 A2995 RMK A01 T00520028  RH  086%=      5-min Rain = 0
KMCS 180610Z 18011G16KT 05/03 A2995 RMK A01 T00510028  RH  086%=      5-min Rain = 0
KMCS 180615Z 18011KT 05/03 A2995 RMK A01 T00520028  RH  086%=      5-min Rain = 0
KMCS 180620Z 18012KT 05/03 A2995 RMK A01 T00520028  RH  086%=      5-min Rain = 0
KMCS 180625Z 18012KT 05/03 A2995 RMK A01 T00510028  RH  087%=      5-min Rain = 0
KMCS 180630Z 18012KT 05/03 A2995 RMK A01 T00510028  RH  087%=      5-min Rain = 0
KMCS 180635Z 18011G16KT 05/03 A2995 RMK A01 T00510028  RH  087%=      5-min Rain = 0
KMCS 180640Z 18013KT 05/03 A2994 RMK A01 T00500028  RH  087%=      5-min Rain = 0
KMCS 180645Z 18012KT 05/03 A2994 RMK A01 T00510028  RH  087%=      5-min Rain = 0
KMCS 180650Z 18011KT 05/03 A2994 RMK A01 T00490028  RH  087%=      5-min Rain = 0
KMCS 180655Z 18009KT 05/03 A2993 RMK A01 T00460026  RH  088%=      5-min Rain = 0
KMCS 180700Z 18009G14KT 04/03 A2993 RMK A01 T00440025  RH  089%=      5-min Rain = 0
KMCS 180705Z 18010G15KT 05/03 A2992 RMK A01 T00470027  RH  089%=      5-min Rain = 0
KMCS 180710Z 18011KT 05/03 A2992 RMK A01 T00470027  RH  089%=      5-min Rain = 0
KMCS 180715Z 18010KT 05/03 A2992 RMK A01 T00450026  RH  089%=      5-min Rain = 0
KMCS 180720Z 18010KT 04/03 A2991 RMK A01 T00430025  RH  089%=      5-min Rain = 0
KMCS 180725Z 18010KT 04/03 A2991 RMK A01 T00430025  RH  090%=      5-min Rain = 0
KMCS 180730Z 19010KT 04/02 A299 RMK A01 T00420024  RH  090%=      5-min Rain = 0
KMCS 180735Z 19009KT 04/02 A299 RMK A01 T00420024  RH  090%=      5-min Rain = 0
KMCS 180740Z 19009KT 04/03 A299 RMK A01 T00430025  RH  089%=      5-min Rain = 0
KMCS 180745Z 19009KT 04/03 A299 RMK A01 T00430025  RH  089%=      5-min Rain = 0
KMCS 180750Z 18011KT 05/03 A299 RMK A01 T00450026  RH  089%=      5-min Rain = 0
KMCS 180755Z 18012G18KT 05/03 A2989 RMK A01 T00480028  RH  088%=      5-min Rain = 0
KMCS 180800Z 18011KT 05/03 A2989 RMK A01 T00480028  RH  088%=      5-min Rain = 0
KMCS 180805Z 18012G18KT 05/03 A2989 RMK A01 T00470028  RH  089%=      5-min Rain = 0
KMCS 180810Z 18012G19KT 05/03 A2988 RMK A01 T00470028  RH  089%=      5-min Rain = 0
KMCS 180815Z 18013G20KT 05/03 A2988 RMK A01 T00470029  RH  090%=      5-min Rain = 0
KMCS 180820Z 18013G19KT 05/03 A2987 RMK A01 T00470029  RH  090%=      5-min Rain = 0
KMCS 180825Z 18013G19KT 05/03 A2987 RMK A01 T00470029  RH  090%=      5-min Rain = 0
KMCS 180830Z 18014G20KT 05/03 A2987 RMK A01 T00460029  RH  090%=      5-min Rain = 0
KMCS 180835Z 18015G21KT 05/03 A2987 RMK A01 T00470029  RH  090%=      5-min Rain = 0
KMCS 180840Z 18014G19KT 05/03 A2986 RMK A01 T00460029  RH  090%=      5-min Rain = 0
KMCS 180845Z 18014G19KT 05/03 A2986 RMK A01 T00460029  RH  090%=      5-min Rain = 0
KMCS 180850Z 19014G19KT 05/03 A2986 RMK A01 T00450029  RH  091%=      5-min Rain = 0
KMCS 180855Z 19013KT 05/03 A2986 RMK A01 T00450029  RH  091%=      5-min Rain = 0
KMCS 180900Z 19012KT 04/03 A2985 RMK A01 T00440028  RH  091%=      5-min Rain = 0
KMCS 180905Z 19013KT 04/03 A2985 RMK A01 T00420027  RH  091%=      5-min Rain = 0
KMCS 180910Z 19013G18KT 04/03 A2985 RMK A01 T00390025  RH  092%=      5-min Rain = 0
KMCS 180915Z 19013G18KT 04/02 A2985 RMK A01 T00370024  RH  093%=      5-min Rain = 0
KMCS 180920Z 19013G18KT 04/02 A2985 RMK A01 T00360024  RH  094%=      5-min Rain = 0
KMCS 180925Z 19013KT 04/02 A2985 RMK A01 T00350024  RH  094%=      5-min Rain = 0
KMCS 180930Z 19012KT 04/02 A2984 RMK A01 T00350024  RH  094%=      5-min Rain = 0
KMCS 180935Z 19011KT 03/02 A2985 RMK A01 T00340024  RH  094%=      5-min Rain = 0
KMCS 180940Z 19012KT 03/02 A2984 RMK A01 T00340023  RH  094%=      5-min Rain = 0
KMCS 180945Z 19012KT 03/02 A2983 RMK A01 T00330023  RH  095%=      5-min Rain = 0
KMCS 180950Z 19012KT 03/02 A2983 RMK A01 T00310022  RH  095%=      5-min Rain = 0
KMCS 180955Z 19011KT 03/02 A2983 RMK A01 T00300021  RH  096%=      5-min Rain = 0
KMCS 181000Z 20010KT 03/02 A2983 RMK A01 T00300021  RH  096%=      5-min Rain = 0
KMCS 181005Z 19011KT 03/02 A2983 RMK A01 T00300021  RH  095%=      5-min Rain = 0
KMCS 181010Z 19010KT 03/02 A2983 RMK A01 T00290020  RH  095%=      5-min Rain = 0
KMCS 181015Z 19010KT 03/02 A2982 RMK A01 T00290020  RH  096%=      5-min Rain = 0
KMCS 181020Z 19011KT 03/02 A2982 RMK A01 T00280020  RH  095%=      5-min Rain = 0
KMCS 181025Z 19011KT 03/02 A2981 RMK A01 T00290020  RH  095%=      5-min Rain = 0
KMCS 181030Z 19012KT 03/02 A2981 RMK A01 T00300021  RH  095%=      5-min Rain = 0
KMCS 181035Z 19013KT 03/02 A2981 RMK A01 T00310021  RH  095%=      5-min Rain = 0
KMCS 181040Z 19012KT 03/02 A298 RMK A01 T00290020  RH  095%=      5-min Rain = 0
KMCS 181045Z 19011KT 03/02 A298 RMK A01 T00290019  RH  095%=      5-min Rain = 0
KMCS 181050Z 19010KT 03/02 A298 RMK A01 T00290019  RH  095%=      5-min Rain = 0
KMCS 181055Z 19010KT 03/02 A2979 RMK A01 T00280020  RH  095%=      5-min Rain = 0
KMCS 181100Z 19009KT 03/02 A2979 RMK A01 T00280019  RH  095%=      5-min Rain = 0
KMCS 181105Z 19009KT 03/02 A2979 RMK A01 T00280019  RH  096%=      5-min Rain = 0
KMCS 181110Z 19010KT 03/02 A2979 RMK A01 T00280019  RH  096%=      5-min Rain = 0
KMCS 181115Z 19010KT 03/02 A2978 RMK A01 T00280019  RH  096%=      5-min Rain = 0
KMCS 181120Z 18010KT 03/02 A2978 RMK A01 T00270018  RH  095%=      5-min Rain = 0
KMCS 181125Z 18009KT 03/02 A2977 RMK A01 T00270018  RH  095%=      5-min Rain = 0
KMCS 181130Z 19009KT 03/02 A2977 RMK A01 T00270018  RH  095%=      5-min Rain = 0
KMCS 181135Z 19009KT 03/02 A2977 RMK A01 T00250017  RH  095%=      5-min Rain = 0
KMCS 181140Z 19009KT 02/02 A2976 RMK A01 T00240017  RH  096%=      5-min Rain = 0
KMCS 181145Z 18008KT 02/02 A2976 RMK A01 T00240017  RH  096%=      5-min Rain = 0
KMCS 181150Z 18009KT 03/02 A2976 RMK A01 T00250017  RH  096%=      5-min Rain = 0
KMCS 181155Z 18008KT 03/02 A2975 RMK A01 T00250017  RH  096%=      5-min Rain = 0
KMCS 181200Z 18008KT 03/02 A2974 RMK A01 T00260018  RH  096%=      5-min Rain = 0
KMCS 181205Z 18007KT 03/02 A2974 RMK A01 T00280019  RH  095%=      5-min Rain = 0
KMCS 181210Z 17007KT 03/02 A2974 RMK A01 T00290018  RH  094%=      5-min Rain = 0
KMCS 181215Z 17007KT 03/02 A2973 RMK A01 T00300018  RH  093%=      5-min Rain = 0
KMCS 181220Z 17007KT 03/02 A2973 RMK A01 T00310018  RH  092%=      5-min Rain = 0
KMCS 181225Z 17006KT 03/02 A2973 RMK A01 T00310017  RH  092%=      5-min Rain = 0
KMCS 181230Z 16006KT 03/02 A2973 RMK A01 T00310017  RH  092%=      5-min Rain = 0
KMCS 181235Z 16006KT 03/02 A2973 RMK A01 T00310017  RH  092%=      5-min Rain = 0
KMCS 181240Z 16006KT 03/02 A2973 RMK A01 T00290017  RH  093%=      5-min Rain = 0
KMCS 181245Z 15006KT 03/02 A2973 RMK A01 T00270016  RH  094%=      5-min Rain = 0
KMCS 181250Z 16006KT 03/02 A2973 RMK A01 T00250015  RH  094%=      5-min Rain = 0
KMCS 181255Z 16006KT 03/02 A2972 RMK A01 T00260015  RH  094%=      5-min Rain = 0
KMCS 181300Z 16006KT 03/02 A2972 RMK A01 T00260015  RH  094%=      5-min Rain = 0
KMCS 181305Z 16006KT 03/02 A2973 RMK A01 T00270016  RH  093%=      5-min Rain = 0
KMCS 181310Z 16006KT 03/02 A2973 RMK A01 T00280016  RH  093%=      5-min Rain = 0
KMCS 181315Z 16007KT 03/02 A2973 RMK A01 T00270015  RH  093%=      5-min Rain = 0
KMCS 181320Z 16007KT 03/02 A2973 RMK A01 T00260015  RH  094%=      5-min Rain = 0
KMCS 181325Z 16007KT 03/02 A2973 RMK A01 T00280016  RH  093%=      5-min Rain = 0
KMCS 181330Z 16007KT 03/02 A2973 RMK A01 T00300017  RH  092%=      5-min Rain = 0
KMCS 181335Z 16006KT 03/02 A2972 RMK A01 T00320017  RH  091%=      5-min Rain = 0
KMCS 181340Z 16007KT 03/02 A2972 RMK A01 T00330017  RH  091%=      5-min Rain = 0
KMCS 181345Z 16006KT 03/02 A2972 RMK A01 T00320017  RH  091%=      5-min Rain = 0
KMCS 181350Z 15006KT 03/02 A2972 RMK A01 T00320016  RH  091%=      5-min Rain = 0
KMCS 181355Z 16007KT 03/02 A2972 RMK A01 T00320016  RH  091%=      5-min Rain = 0
KMCS 181400Z 17006KT 03/02 A2972 RMK A01 T00340017  RH  090%=      5-min Rain = 0
KMCS 181405Z 18008KT 04/02 A2972 RMK A01 T00350017  RH  089%=      5-min Rain = 0
KMCS 181410Z 18009KT 04/02 A2972 RMK A01 T00360017  RH  089%=      5-min Rain = 0
KMCS 181415Z 18007KT 04/02 A2972 RMK A01 T00350017  RH  089%=      5-min Rain = 0
KMCS 181420Z 18006KT 04/02 A2972 RMK A01 T00350017  RH  089%=      5-min Rain = 0
KMCS 181425Z 17006KT 04/02 A2971 RMK A01 T00360017  RH  089%=      5-min Rain = 0
KMCS 181430Z 17006KT 04/02 A2971 RMK A01 T00360017  RH  089%=      5-min Rain = 0
KMCS 181435Z 18006KT 04/02 A2971 RMK A01 T00370017  RH  088%=      5-min Rain = 0
KMCS 181440Z 18006KT 04/02 A2971 RMK A01 T00380018  RH  088%=      5-min Rain = 0
KMCS 181445Z 19008KT 04/02 A2971 RMK A01 T00380018  RH  088%=      5-min Rain = 0
KMCS 181450Z 18008KT 04/02 A2971 RMK A01 T00380017  RH  088%=      5-min Rain = 0
KMCS 181455Z 18006KT 04/02 A2971 RMK A01 T00370018  RH  089%=      5-min Rain = 0
KMCS 181500Z 19006KT 04/02 A297 RMK A01 T00370019  RH  089%=      5-min Rain = 0
KMCS 181505Z 19007KT 04/02 A297 RMK A01 T00380019  RH  089%=      5-min Rain = 0
KMCS 181510Z 19007KT 04/02 A297 RMK A01 T00380020  RH  089%=      5-min Rain = 0
KMCS 181515Z 19007KT 04/02 A297 RMK A01 T00380020  RH  089%=      5-min Rain = 0
KMCS 181520Z 20006KT 04/02 A297 RMK A01 T00380020  RH  090%=      5-min Rain = 0
KMCS 181525Z 19006KT 04/02 A297 RMK A01 T00380019  RH  089%=      5-min Rain = 0
KMCS 181530Z 20005KT 04/02 A2969 RMK A01 T00390019  RH  088%=      5-min Rain = 0
KMCS 181535Z 20006KT 04/02 A2969 RMK A01 T00430021  RH  087%=      5-min Rain = 0
KMCS 181540Z 20006KT 05/02 A2969 RMK A01 T00490022  RH  084%=      5-min Rain = 0
KMCS 181545Z 20007KT 06/02 A2969 RMK A01 T00570024  RH  081%=      5-min Rain = 0
KMCS 181550Z 19007KT 06/03 A2968 RMK A01 T00620025  RH  079%=      5-min Rain = 0
KMCS 181555Z 20008KT 06/02 A2969 RMK A01 T00640022  RH  075%=      5-min Rain = 0
KMCS 181600Z 20008KT 07/02 A2968 RMK A01 T00670020  RH  073%=      5-min Rain = 0
KMCS 181605Z 19008KT 07/02 A2968 RMK A01 T00710022  RH  072%=      5-min Rain = 0
KMCS 181610Z 21008KT 08/02 A2968 RMK A01 T00760022  RH  070%=      5-min Rain = 0
KMCS 181615Z 22009KT 08/02 A2968 RMK A01 T00780019  RH  067%=      5-min Rain = 0
KMCS 181620Z 22009KT 07/02 A2969 RMK A01 T00740020  RH  069%=      5-min Rain = 0
KMCS 181625Z 21008KT 08/02 A2968 RMK A01 T00750021  RH  070%=      5-min Rain = 0
KMCS 181630Z 21007KT 08/02 A2968 RMK A01 T00770022  RH  069%=      5-min Rain = 0
KMCS 181635Z 21007KT 08/03 A2967 RMK A01 T00830025  RH  068%=      5-min Rain = 0
KMCS 181640Z 21007KT 09/03 A2967 RMK A01 T00910028  RH  066%=      5-min Rain = 0
KMCS 181645Z 23006KT 10/03 A2966 RMK A01 T00980034  RH  066%=      5-min Rain = 0
KMCS 181650Z 25010G16KT 12/03 A2966 RMK A01 T01190033  RH  057%=      5-min Rain = 0
KMCS 181655Z 24012G17KT 14/03 A2966 RMK A01 T01350028  RH  049%=      5-min Rain = 0
KMCS 181700Z 25022G33KT 15/03 A2966 RMK A01 T01530028  RH  044%=      5-min Rain = 0
KMCS 181705Z 25025G34KT 16/02 A2965 RMK A01 T01610020  RH  039%=      5-min Rain = 0
KMCS 181710Z 25024G33KT 17/02 A2964 RMK A01 T01670021  RH  038%=      5-min Rain = 0
KMCS 181715Z 24025G34KT 17/02 A2964 RMK A01 T01690019  RH  037%=      5-min Rain = 0
KMCS 181720Z 25027G37KT 17/02 A2964 RMK A01 T01710019  RH  037%=      5-min Rain = 0
KMCS 181725Z 25024G32KT 17/02 A2963 RMK A01 T01690018  RH  037%=      5-min Rain = 0
KMCS 181730Z 26021G27KT 17/02 A2964 RMK A01 T01650017  RH  038%=      5-min Rain = 0
KMCS 181735Z 26020G25KT 16/02 A2963 RMK A01 T01630018  RH  038%=      5-min Rain = 0
KMCS 181740Z 25021G29KT 16/02 A2963 RMK A01 T01630019  RH  038%=      5-min Rain = 0
KMCS 181745Z 26019G24KT 16/02 A2962 RMK A01 T01640019  RH  038%=      5-min Rain = 0
KMCS 181750Z 26018G26KT 16/02 A2962 RMK A01 T01640020  RH  038%=      5-min Rain = 0
KMCS 181755Z 26019G27KT 17/02 A2962 RMK A01 T01660020  RH  038%=      5-min Rain = 0
KMCS 181800Z 26019G25KT 17/02 A2962 RMK A01 T01660020  RH  038%=      5-min Rain = 0
KMCS 181805Z 27017G23KT 17/02 A2962 RMK A01 T01660020  RH  038%=      5-min Rain = 0
KMCS 181810Z 26018G25KT 17/02 A2961 RMK A01 T01690022  RH  038%=      5-min Rain = 0
KMCS 181815Z 27017G26KT 17/02 A296 RMK A01 T01730022  RH  037%=      5-min Rain = 0
KMCS 181820Z 27020G26KT 17/02 A296 RMK A01 T01740020  RH  036%=      5-min Rain = 0
KMCS 181825Z 27019G26KT 18/02 A296 RMK A01 T01760021  RH  036%=      5-min Rain = 0
KMCS 181830Z 28020G26KT 18/02 A296 RMK A01 T01800023  RH  035%=      5-min Rain = 0
KMCS 181835Z 27018G27KT 18/02 A296 RMK A01 T01820023  RH  035%=      5-min Rain = 0
KMCS 181840Z 26019G31KT 18/02 A296 RMK A01 T01810023  RH  035%=      5-min Rain = 0
KMCS 181845Z 26022G29KT 18/02 A2959 RMK A01 T01780022  RH  036%=      5-min Rain = 0
KMCS 181850Z 26018G25KT 18/02 A2959 RMK A01 T01760024  RH  037%=      5-min Rain = 0
KMCS 181855Z 26021G28KT 18/02 A2958 RMK A01 T01810023  RH  035%=      5-min Rain = 0
KMCS 181900Z 26017G24KT 18/02 A2958 RMK A01 T01830023  RH  035%=      5-min Rain = 0
KMCS 181905Z 26020G30KT 19/02 A2956 RMK A01 T01850020  RH  034%=      5-min Rain = 0
KMCS 181910Z 26020G26KT 19/02 A2956 RMK A01 T01870020  RH  033%=      5-min Rain = 0
KMCS 181915Z 27018G26KT 19/02 A2956 RMK A01 T01920020  RH  032%=      5-min Rain = 0
KMCS 181920Z 26021G28KT 20/02 A2955 RMK A01 T01970018  RH  031%=      5-min Rain = 0
KMCS 181925Z 27021G30KT 19/01 A2955 RMK A01 T01940013  RH  030%=      5-min Rain = 0
KMCS 181930Z 28018G25KT 19/01 A2955 RMK A01 T01890010  RH  031%=      5-min Rain = 0
KMCS 181935Z 28018G28KT 19/01 A2954 RMK A01 T01890010  RH  031%=      5-min Rain = 0
KMCS 181940Z 27020G27KT 19/01 A2954 RMK A01 T01900010  RH  030%=      5-min Rain = 0
KMCS 181945Z 27018G26KT 19/01 A2954 RMK A01 T01890008  RH  030%=      5-min Rain = 0
KMCS 181950Z 28018G24KT 19/01 A2954 RMK A01 T01890009  RH  030%=      5-min Rain = 0
KMCS 181955Z 27017G24KT 19/01 A2954 RMK A01 T01920010  RH  030%=      5-min Rain = 0
KMCS 182000Z 30020G25KT 19/01 A2954 RMK A01 T01920014  RH  031%=      5-min Rain = 0
KMCS 182005Z 29020G25KT 19/01 A2954 RMK A01 T01850008  RH  031%=      5-min Rain = 0
KMCS 182010Z 30021G29KT 18/00 A2954 RMK A01 T01810003  RH  030%=      5-min Rain = 0
KMCS 182015Z 30020KT 19/00 A2954 RMK A01 T01870004  RH  029%=      5-min Rain = 0
KMCS 182020Z 31018KT 20/01 A2954 RMK A01 T01950005  RH  028%=      5-min Rain = 0
KMCS 182025Z 30020G25KT 19/00 A2953 RMK A01 T01930004  RH  028%=      5-min Rain = 0
KMCS 182030Z 30018KT 19/00 A2954 RMK A01 T01880004  RH  029%=      5-min Rain = 0
KMCS 182035Z 29017G23KT 18/00 A2954 RMK A01 T01830004  RH  030%=      5-min Rain = 0
KMCS 182040Z 30018G23KT 18/00 A2953 RMK A01 T01790003  RH  031%=      5-min Rain = 0
KMCS 182045Z 30017KT 18/00 A2953 RMK A01 T01790001  RH  030%=      5-min Rain = 0
KMCS 182050Z 29017KT 18/00 A2953 RMK A01 T01770003  RH  031%=      5-min Rain = 0
KMCS 182055Z 29015KT 18/01 A2953 RMK A01 T01840005  RH  030%=      5-min Rain = 0
KMCS 182100Z 30014KT 19/00 A2953 RMK A01 T01890002  RH  029%=      5-min Rain = 0
KMCS 182105Z 30015KT 19/00 A2953 RMK A01 T01860002  RH  029%=      5-min Rain = 0
KMCS 182110Z 30013KT 18/01 A2953 RMK A01 T01810005  RH  031%=      5-min Rain = 0
KMCS 182115Z 30013KT 18/01 A2954 RMK A01 T01800005  RH  031%=      5-min Rain = 0
KMCS 182120Z 29014G24KT 19/00 A2954 RMK A01 T01870002  RH  029%=      5-min Rain = 0
KMCS 182125Z 28018KT 18/M02 A2954 RMK A01 T01841022  RH  025%=      5-min Rain = 0
KMCS 182130Z 29016KT 18/M02 A2954 RMK A01 T01821022  RH  025%=      5-min Rain = 0
KMCS 182135Z 29015G20KT 18/M02 A2954 RMK A01 T01831023  RH  025%=      5-min Rain = 0
KMCS 182140Z 29015G23KT 18/M02 A2954 RMK A01 T01821023  RH  025%=      5-min Rain = 0
KMCS 182145Z 29015G23KT 18/M03 A2954 RMK A01 T01811027  RH  024%=      5-min Rain = 0
KMCS 182150Z 30015G21KT 18/M02 A2954 RMK A01 T01801020  RH  026%=      5-min Rain = 0
KMCS 182155Z 31014KT 18/M01 A2954 RMK A01 T01791014  RH  027%=      5-min Rain = 0
KMCS 182200Z 31017G22KT 18/M02 A2954 RMK A01 T01781016  RH  027%=      5-min Rain = 0
KMCS 182205Z 30015KT 18/M02 A2954 RMK A01 T01761016  RH  027%=      5-min Rain = 0
KMCS 182210Z 30016KT 18/M01 A2954 RMK A01 T01761012  RH  028%=      5-min Rain = 0
KMCS 182215Z 31014KT 17/M01 A2955 RMK A01 T01741009  RH  029%=      5-min Rain = 0
KMCS 182220Z 31013KT 17/M01 A2955 RMK A01 T01731007  RH  030%=      5-min Rain = 0
KMCS 182225Z 35020G29KT 15/00 A2957 RMK A01 T01540001  RH  036%=      5-min Rain = 0
KMCS 182230Z 36025G31KT 13/01 A2957 RMK A01 T01250006  RH  045%=      5-min Rain = 0
KMCS 182235Z 36021G30KT 12/01 A2958 RMK A01 T01150006  RH  048%=      5-min Rain = 0
KMCS 182240Z 35022G33KT 11/01 A296 RMK A01 T01070006  RH  050%=      5-min Rain = 0
KMCS 182245Z 34024G30KT 10/01 A296 RMK A01 T00980008  RH  054%=      5-min Rain = 0
KMCS 182250Z 34025G31KT 09/01 A2961 RMK A01 T00900007  RH  057%=      5-min Rain = 0
KMCS 182255Z 35023G30KT 08/01 A2962 RMK A01 T00840006  RH  059%=      5-min Rain = 0
KMCS 182300Z 35023G30KT 08/01 A2962 RMK A01 T00780006  RH  061%=      5-min Rain = 0
KMCS 182305Z 35023G30KT 07/01 A2962 RMK A01 T00730005  RH  063%=      5-min Rain = 0
KMCS 182310Z 34023G29KT 07/00 A2963 RMK A01 T00670004  RH  065%=      5-min Rain = 0
KMCS 182315Z 34022G29KT 06/00 A2963 RMK A01 T00630002  RH  066%=      5-min Rain = 0
KMCS 182320Z 34022G28KT 06/00 A2963 RMK A01 T00580002  RH  068%=      5-min Rain = 0
KMCS 182325Z 35025G33KT 05/00 A2963 RMK A01 T00510001  RH  071%=      5-min Rain = 0
KMCS 182330Z 34026G33KT 05/00 A2963 RMK A01 T004600-0  RH  073%=      5-min Rain = 0
KMCS 182335Z 34026G33KT 04/M00 A2964 RMK A01 T00421001  RH  075%=      5-min Rain = 0
KMCS 182340Z 34027G35KT 04/M00 A2964 RMK A01 T00391001  RH  076%=      5-min Rain = 0
KMCS 182345Z 35026G36KT 04/M00 A2966 RMK A01 T00371001  RH  077%=      5-min Rain = 0
KMCS 182350Z 35024G32KT 04/00 A2966 RMK A01 T003600-0  RH  078%=      5-min Rain = 0
KMCS 182355Z 35025G32KT 04/00 A2967 RMK A01 T00370001  RH  078%=      5-min Rain = 0
KMCS 190000Z 34025G32KT 04/00 A2968 RMK A01 T00370001  RH  079%=      5-min Rain = 0
KMCS 190005Z 34024G35KT 04/00 A2968 RMK A01 T00350002  RH  080%=      5-min Rain = 0
KMCS 190010Z 34024G31KT 03/00 A2969 RMK A01 T00330003  RH  082%=      5-min Rain = 0
KMCS 190015Z 35022G28KT 03/00 A297 RMK A01 T00330003  RH  082%=      5-min Rain = 0
KMCS 190020Z 35023G30KT 03/00 A297 RMK A01 T00320004  RH  083%=      5-min Rain = 0
KMCS 190025Z 35027G34KT 03/01 A297 RMK A01 T00310005  RH  084%=      5-min Rain = 0
KMCS 190030Z 35025G31KT 03/01 A2971 RMK A01 T00310005  RH  084%=      5-min Rain = 0
KMCS 190035Z 35026G33KT 03/00 A2971 RMK A01 T00300004  RH  084%=      5-min Rain = 0
KMCS 190040Z 35025G33KT 03/01 A2971 RMK A01 T00280005  RH  086%=      5-min Rain = 0
KMCS 190045Z 35026G35KT 03/01 A2971 RMK A01 T00270005  RH  087%=      5-min Rain = 0
KMCS 190050Z 35024G33KT 03/01 A2972 RMK A01 T00270005  RH  086%=      5-min Rain = 0
KMCS 190055Z 35026G37KT 03/01 A2972 RMK A01 T00260005  RH  087%=      5-min Rain = 0
KMCS 190100Z 35026G34KT 03/00 A2972 RMK A01 T00260004  RH  087%=      5-min Rain = 0
KMCS 190105Z 34026G34KT 02/00 A2973 RMK A01 T00240004  RH  088%=      5-min Rain = 0
KMCS 190110Z 34029G38KT 02/00 A2973 RMK A01 T00230004  RH  088%=      5-min Rain = 0
KMCS 190115Z 35028G39KT 02/00 A2974 RMK A01 T00230003  RH  088%=      5-min Rain = 0
KMCS 190120Z 34027G39KT 02/00 A2974 RMK A01 T00230002  RH  087%=      5-min Rain = 0
KMCS 190125Z 34024G32KT 02/00 A2975 RMK A01 T00220001  RH  087%=      5-min Rain = 0
KMCS 190130Z 34029G38KT 02/00 A2975 RMK A01 T002100-0  RH  087%=      5-min Rain = 0
KMCS 190135Z 35029G39KT 02/M00 A2976 RMK A01 T00211002  RH  086%=      5-min Rain = 0
KMCS 190140Z 34030G38KT 02/M00 A2976 RMK A01 T00211003  RH  085%=      5-min Rain = 0
KMCS 190145Z 34031G39KT 02/M00 A2977 RMK A01 T00211004  RH  085%=      5-min Rain = 0
KMCS 190150Z 35030G40KT 02/M01 A2977 RMK A01 T00211005  RH  084%=      5-min Rain = 0
KMCS 190155Z 34027G36KT 02/M01 A2978 RMK A01 T00201005  RH  084%=      5-min Rain = 0
KMCS 190200Z 34032G39KT 02/M01 A2978 RMK A01 T00181008  RH  084%=      5-min Rain = 0
KMCS 190205Z 34029G39KT 02/M01 A2979 RMK A01 T00171010  RH  083%=      5-min Rain = 0
KMCS 190210Z 34031G41KT 02/M01 A2979 RMK A01 T00161012  RH  082%=      5-min Rain = 0
KMCS 190215Z 35029G44KT 02/M01 A298 RMK A01 T00161013  RH  082%=      5-min Rain = 0
KMCS 190220Z 34027G38KT 02/M01 A298 RMK A01 T00161013  RH  082%=      5-min Rain = 0
KMCS 190225Z 34031G37KT 02/M01 A298 RMK A01 T00151014  RH  082%=      5-min Rain = 0
KMCS 190230Z 34031G41KT 01/M02 A2981 RMK A01 T00141016  RH  082%=      5-min Rain = 0
KMCS 190235Z 34033G41KT 01/M02 A2981 RMK A01 T00121018  RH  081%=      5-min Rain = 0
KMCS 190240Z 35034G44KT 01/M02 A2981 RMK A01 T00121020  RH  080%=      5-min Rain = 0
KMCS 190245Z 35029G37KT 01/M02 A2982 RMK A01 T00121020  RH  080%=      5-min Rain = 0
KMCS 190250Z 35031G39KT 01/M02 A2982 RMK A01 T00121019  RH  080%=      5-min Rain = 0
KMCS 190255Z 34031G38KT 01/M02 A2983 RMK A01 T00111021  RH  080%=      5-min Rain = 0
KMCS 190300Z 35030G43KT 01/M02 A2983 RMK A01 T00101022  RH  080%=      5-min Rain = 0
KMCS 190305Z 35029G38KT 01/M02 A2984 RMK A01 T00081023  RH  080%=      5-min Rain = 0
KMCS 190310Z 35032G41KT 01/M02 A2984 RMK A01 T00061023  RH  082%=      5-min Rain = 0
KMCS 190315Z 35028G37KT 01/M02 A2984 RMK A01 T00051024  RH  081%=      5-min Rain = 0
KMCS 190320Z 35023G31KT 01/M02 A2984 RMK A01 T00051024  RH  081%=      5-min Rain = 0
KMCS 190325Z 35031G40KT 00/M02 A2984 RMK A01 T00041022  RH  084%=      5-min Rain = 0
KMCS 190330Z 35028G38KT 00/M02 A2985 RMK A01 T00031022  RH  084%=      5-min Rain = 0
KMCS 190335Z 35030G37KT 00/M02 A2986 RMK A01 T00031024  RH  083%=      5-min Rain = 0
KMCS 190340Z 35030G40KT 00/M03 A2986 RMK A01 T00031026  RH  082%=      5-min Rain = 0
KMCS 190345Z 35031G41KT 00/M03 A2987 RMK A01 T00021028  RH  081%=      5-min Rain = 0
KMCS 190350Z 35028G37KT 00/M03 A2987 RMK A01 T00011027  RH  082%=      5-min Rain = 0
KMCS 190355Z 35031G42KT 00/M03 A2987 RMK A01 T00011028  RH  081%=      5-min Rain = 0
KMCS 190400Z 35033G40KT 00/M03 A2987 RMK A01 T00011028  RH  081%=      5-min Rain = 0
KMCS 190405Z 35031G44KT 00/M03 A2988 RMK A01 T00011029  RH  081%=      5-min Rain = 0
KMCS 190410Z 35033G45KT 00/03 A2989 RMK A01 T00000-34  RH  078%=      5-min Rain = 0
KMCS 190415Z 35027G35KT 00/03 A2989 RMK A01 T00000-34  RH  079%=      5-min Rain = 0
KMCS 190420Z 35030G43KT 00/03 A299 RMK A01 T00000-33  RH  079%=      5-min Rain = 0
KMCS 190425Z 35031G43KT M00/M04 A299 RMK A01 T10011035  RH  078%=      5-min Rain = 0
KMCS 190430Z 35030G40KT M00/M04 A299 RMK A01 T10011035  RH  078%=      5-min Rain = 0
KMCS 190435Z 35029G39KT M00/M04 A299 RMK A01 T10011035  RH  079%=      5-min Rain = 0
KMCS 190440Z 35033G43KT M00/M04 A299 RMK A01 T10031035  RH  079%=      5-min Rain = 0
KMCS 190445Z 35029G40KT M01/M03 A2991 RMK A01 T10051034  RH  081%=      5-min Rain = 0
KMCS 190450Z 35028G37KT M01/M03 A2992 RMK A01 T10071032  RH  084%=      5-min Rain = 0
KMCS 190455Z 35030G41KT M01/M03 A2992 RMK A01 T10081033  RH  084%=      5-min Rain = 0
KMCS 190500Z 35032G40KT M01/M04 A2992 RMK A01 T10081035  RH  082%=      5-min Rain = 0
KMCS 190505Z 36027G40KT M01/M03 A2992 RMK A01 T10081034  RH  083%=      5-min Rain = 0
KMCS 190510Z 35026G34KT M01/M03 A2992 RMK A01 T10081031  RH  085%=      5-min Rain = 0
KMCS 190515Z 35029G38KT M01/M03 A2993 RMK A01 T10081033  RH  084%=      5-min Rain = 0
KMCS 190520Z 35029G40KT M01/M04 A2993 RMK A01 T10081036  RH  082%=      5-min Rain = 0
KMCS 190525Z 35029G40KT M01/M04 A2993 RMK A01 T10081037  RH  081%=      5-min Rain = 0
KMCS 190530Z 35030G42KT M01/M04 A2994 RMK A01 T10081038  RH  081%=      5-min Rain = 0
KMCS 190535Z 35030G39KT M01/M04 A2994 RMK A01 T10081039  RH  080%=      5-min Rain = 0
KMCS 190540Z 35027G37KT M01/M04 A2994 RMK A01 T10081039  RH  079%=      5-min Rain = 0
KMCS 190545Z 36030G38KT M01/M04 A2994 RMK A01 T10081040  RH  079%=      5-min Rain = 0
KMCS 190550Z 35028G37KT M01/M04 A2994 RMK A01 T10081040  RH  079%=      5-min Rain = 0
KMCS 190555Z 35027G34KT M01/M04 A2994 RMK A01 T10081040  RH  079%=      5-min Rain = 0

Page generated in 0.0092 seconds.